Wetterdaten: Woche 28.03.16 - 03.04.16 (KW13)
Datum Zeit Temp. A. Feuchte A. Luftdruck Regen Wind Richtung Taupunkt Windchill Windben
28.03.2016 00:00 4,8 C 79 % 1013,0 hPa 0,0 l/m 0,0 km/h N 1,4 C 4,8 C 0,0 km/h
28.03.2016 01:00 4,1 C 81 % 1013,0 hPa 0,0 l/m 0,0 km/h N 1,1 C 4,1 C 0,0 km/h
28.03.2016 02:00 3,3 C 82 % 1013,0 hPa 0,0 l/m 0,0 km/h N 0,5 C 3,3 C 0,0 km/h
28.03.2016 03:00 2,5 C 82 % 1013,1 hPa 0,0 l/m 0,0 km/h N -0,2 C 2,5 C 0,0 km/h
28.03.2016 04:00 2,3 C 83 % 1013,0 hPa 0,0 l/m 0,0 km/h N -0,3 C 2,3 C 1,6 km/h
28.03.2016 05:00 2,2 C 83 % 1013,1 hPa 0,0 l/m 0,0 km/h N -0,4 C 2,2 C 0,0 km/h
28.03.2016 06:00 1,8 C 83 % 1013,2 hPa 0,0 l/m 0,0 km/h N -0,7 C 1,8 C 0,0 km/h
28.03.2016 07:00 2,3 C 83 % 1013,3 hPa 0,0 l/m 0,0 km/h N -0,3 C 2,3 C 0,0 km/h
28.03.2016 08:00 4,1 C 82 % 1013,5 hPa 0,0 l/m 0,0 km/h N 1,3 C 4,1 C 0,8 km/h
28.03.2016 09:00 6,0 C 82 % 1013,3 hPa 0,0 l/m 0,0 km/h N 3,2 C 6,0 C 1,2 km/h
28.03.2016 10:00 9,3 C 78 % 1012,8 hPa 0,0 l/m 0,5 km/h N 5,7 C 9,3 C 5,6 km/h
28.03.2016 11:00 12,5 C 65 % 1012,1 hPa 0,0 l/m 1,0 km/h N 6,1 C 12,5 C 8,0 km/h
28.03.2016 12:00 14,2 C 61 % 1011,2 hPa 0,0 l/m 2,3 km/h N 6,7 C 14,2 C 10,1 km/h
28.03.2016 13:00 15,5 C 56 % 1010,4 hPa 0,0 l/m 2,7 km/h N 6,7 C 15,5 C 11,3 km/h
28.03.2016 14:00 16,2 C 53 % 1009,4 hPa 0,0 l/m 3,0 km/h N 6,7 C 16,2 C 15,7 km/h
28.03.2016 15:00 16,3 C 52 % 1008,7 hPa 0,0 l/m 3,4 km/h N 6,4 C 16,3 C 14,1 km/h
28.03.2016 16:00 15,8 C 53 % 1008,0 hPa 0,0 l/m 2,6 km/h N 6,3 C 15,8 C 13,7 km/h
28.03.2016 17:00 15,2 C 56 % 1007,4 hPa 0,0 l/m 1,5 km/h N 6,3 C 15,2 C 10,5 km/h
28.03.2016 18:00 14,4 C 59 % 1007,0 hPa 0,0 l/m 1,0 km/h N 6,4 C 14,4 C 9,3 km/h
28.03.2016 19:00 13,6 C 61 % 1007,2 hPa 0,0 l/m 1,3 km/h N 6,2 C 13,6 C 8,0 km/h
28.03.2016 20:00 12,4 C 67 % 1007,3 hPa 0,0 l/m 0,7 km/h N 6,3 C 12,4 C 6,4 km/h
28.03.2016 21:00 11,4 C 72 % 1007,2 hPa 0,0 l/m 0,2 km/h N 6,4 C 11,4 C 4,4 km/h
28.03.2016 22:00 10,6 C 76 % 1007,0 hPa 0,0 l/m 0,2 km/h N 6,5 C 10,6 C 6,0 km/h
28.03.2016 23:00 9,6 C 77 % 1007,2 hPa 0,0 l/m 0,0 km/h N 5,7 C 9,6 C 1,2 km/h
29.03.2016 00:00 7,3 C 79 % 1007,6 hPa 0,0 l/m 0,0 km/h N 3,9 C 7,3 C 0,0 km/h
29.03.2016 01:00 6,3 C 82 % 1008,0 hPa 0,0 l/m 0,0 km/h N 3,5 C 6,3 C 1,6 km/h
29.03.2016 02:00 6,4 C 83 % 1008,3 hPa 0,0 l/m 0,1 km/h N 3,7 C 6,4 C 1,2 km/h
29.03.2016 03:00 5,9 C 83 % 1008,3 hPa 0,0 l/m 0,0 km/h N 3,3 C 5,9 C 0,4 km/h
29.03.2016 04:00 5,3 C 83 % 1008,7 hPa 0,0 l/m 0,0 km/h N 2,7 C 5,3 C 0,4 km/h
29.03.2016 05:00 6,0 C 82 % 1009,3 hPa 0,0 l/m 0,0 km/h N 3,2 C 6,0 C 1,6 km/h
29.03.2016 06:00 6,8 C 82 % 1009,6 hPa 0,0 l/m 0,1 km/h N 4,0 C 6,8 C 2,0 km/h
29.03.2016 07:00 6,5 C 82 % 1010,4 hPa 0,0 l/m 0,0 km/h N 3,7 C 6,5 C 1,6 km/h
29.03.2016 08:00 7,7 C 82 % 1010,7 hPa 0,0 l/m 0,2 km/h N 4,8 C 7,7 C 4,8 km/h
29.03.2016 09:00 12,4 C 66 % 1010,9 hPa 0,0 l/m 11,0 km/h N 5,9 C 9,7 C 24,9 km/h
29.03.2016 10:00 13,0 C 58 % 1011,6 hPa 0,3 l/m 12,1 km/h N 4,8 C 9,9 C 35,0 km/h
29.03.2016 11:00 13,9 C 54 % 1011,3 hPa 0,0 l/m 17,0 km/h N 4,7 C 9,2 C 39,0 km/h
29.03.2016 12:00 14,6 C 50 % 1011,7 hPa 0,0 l/m 19,9 km/h N 4,4 C 9,4 C 41,1 km/h
29.03.2016 13:00 14,8 C 50 % 1011,6 hPa 0,0 l/m 18,4 km/h N 4,5 C 10,0 C 36,2 km/h
29.03.2016 14:00 12,9 C 64 % 1012,0 hPa 0,0 l/m 9,2 km/h N 6,2 C 11,2 C 23,8 km/h
29.03.2016 15:00 15,8 C 50 % 1011,6 hPa 0,0 l/m 8,5 km/h N 5,3 C 14,6 C 23,7 km/h
29.03.2016 16:00 16,0 C 47 % 1011,8 hPa 0,0 l/m 8,6 km/h N 4,8 C 14,9 C 26,1 km/h
29.03.2016 17:00 15,8 C 46 % 1011,7 hPa 0,0 l/m 8,1 km/h N 4,3 C 14,9 C 24,5 km/h
29.03.2016 18:00 15,2 C 47 % 1012,3 hPa 0,0 l/m 6,0 km/h N 3,8 C 15,1 C 18,9 km/h
29.03.2016 19:00 14,2 C 50 % 1013,0 hPa 0,0 l/m 2,5 km/h N 3,7 C 14,2 C 11,3 km/h
29.03.2016 20:00 13,1 C 53 % 1013,5 hPa 0,0 l/m 1,9 km/h N 3,8 C 13,1 C 7,2 km/h
29.03.2016 21:00 11,9 C 57 % 1013,7 hPa 0,0 l/m 0,1 km/h N 3,6 C 11,9 C 2,0 km/h
29.03.2016 22:00 9,7 C 63 % 1014,0 hPa 0,0 l/m 0,0 km/h N 3,0 C 9,7 C 0,4 km/h
29.03.2016 23:00 8,4 C 70 % 1014,1 hPa 0,0 l/m 0,2 km/h N 3,2 C 8,4 C 1,6 km/h
30.03.2016 00:00 7,9 C 74 % 1014,2 hPa 0,0 l/m 0,0 km/h N 3,5 C 7,9 C 0,8 km/h
30.03.2016 01:00 8,0 C 77 % 1014,9 hPa 0,0 l/m 0,7 km/h N 4,1 C 8,0 C 5,2 km/h
30.03.2016 02:00 10,0 C 73 % 1015,4 hPa 0,3 l/m 3,3 km/h N 5,4 C 10,0 C 11,3 km/h
30.03.2016 03:00 10,0 C 75 % 1014,8 hPa 0,3 l/m 2,7 km/h N 5,7 C 10,0 C 12,1 km/h
30.03.2016 04:00 9,7 C 76 % 1014,6 hPa 0,0 l/m 2,8 km/h N 5,7 C 9,7 C 8,0 km/h
30.03.2016 05:00 9,5 C 76 % 1014,3 hPa 0,0 l/m 0,4 km/h N 5,4 C 9,5 C 4,8 km/h
30.03.2016 06:00 9,3 C 77 % 1014,4 hPa 0,0 l/m 0,3 km/h N 5,3 C 9,3 C 2,0 km/h
30.03.2016 07:00 8,3 C 78 % 1014,5 hPa 0,0 l/m 0,0 km/h N 4,8 C 8,3 C 0,0 km/h
30.03.2016 08:00 9,1 C 81 % 1015,0 hPa 0,0 l/m 0,0 km/h N 5,9 C 9,1 C 1,2 km/h
30.03.2016 09:00 11,1 C 76 % 1014,8 hPa 0,0 l/m 0,1 km/h N 6,9 C 11,1 C 2,4 km/h
30.03.2016 10:00 13,1 C 68 % 1014,8 hPa 0,0 l/m 0,5 km/h N 7,4 C 13,1 C 5,2 km/h
30.03.2016 11:00 14,4 C 61 % 1014,6 hPa 0,0 l/m 2,0 km/h N 7,0 C 14,4 C 8,8 km/h
30.03.2016 12:00 15,1 C 61 % 1013,9 hPa 0,0 l/m 2,3 km/h N 7,5 C 15,1 C 10,1 km/h
30.03.2016 13:00 15,9 C 59 % 1013,8 hPa 0,0 l/m 1,4 km/h N 8,0 C 15,9 C 8,4 km/h
30.03.2016 14:00 16,4 C 59 % 1013,5 hPa 0,0 l/m 0,8 km/h N 8,2 C 16,4 C 6,0 km/h
30.03.2016 15:00 16,7 C 57 % 1012,8 hPa 0,0 l/m 0,8 km/h N 8,1 C 16,7 C 6,0 km/h
30.03.2016 16:00 16,7 C 59 % 1012,3 hPa 0,0 l/m 1,0 km/h N 8,5 C 16,7 C 6,4 km/h
30.03.2016 17:00 16,6 C 62 % 1012,1 hPa 0,0 l/m 0,2 km/h N 9,3 C 16,6 C 4,0 km/h
30.03.2016 18:00 16,2 C 65 % 1012,3 hPa 0,0 l/m 0,1 km/h N 9,5 C 16,2 C 2,0 km/h
30.03.2016 19:00 15,2 C 66 % 1012,3 hPa 0,0 l/m 0,0 km/h N 8,9 C 15,2 C 0,0 km/h
30.03.2016 20:00 12,4 C 75 % 1013,0 hPa 0,0 l/m 0,0 km/h N 8,0 C 12,4 C 0,4 km/h
30.03.2016 21:00 10,9 C 78 % 1013,1 hPa 0,0 l/m 0,0 km/h N 7,2 C 10,9 C 0,8 km/h
30.03.2016 22:00 10,5 C 80 % 1013,3 hPa 0,0 l/m 0,0 km/h N 7,2 C 10,5 C 0,8 km/h
30.03.2016 23:00 10,7 C 81 % 1013,6 hPa 0,0 l/m 0,0 km/h N 7,5 C 10,7 C 1,2 km/h
31.03.2016 00:00 10,4 C 80 % 1013,5 hPa 0,0 l/m 0,0 km/h N 7,1 C 10,4 C 0,4 km/h
31.03.2016 01:00 9,8 C 81 % 1013,5 hPa 0,0 l/m 0,0 km/h N 6,6 C 9,8 C 0,4 km/h
31.03.2016 02:00 9,7 C 82 % 1013,3 hPa 0,0 l/m 0,0 km/h N 6,8 C 9,7 C 0,0 km/h
31.03.2016 03:00 9,4 C 82 % 1012,5 hPa 0,0 l/m 0,0 km/h N 6,4 C 9,4 C 0,4 km/h
31.03.2016 04:00 8,5 C 82 % 1012,3 hPa 0,0 l/m 0,0 km/h N 5,6 C 8,5 C 1,1 km/h
31.03.2016 05:00 7,4 C 83 % 1012,3 hPa 0,0 l/m 0,0 km/h N 4,6 C 7,4 C 1,2 km/h
31.03.2016 06:00 6,6 C 83 % 1012,3 hPa 0,0 l/m 0,0 km/h N 3,9 C 6,6 C 0,0 km/h
31.03.2016 07:00 6,5 C 83 % 1012,5 hPa 0,0 l/m 0,0 km/h N 3,8 C 6,5 C 0,4 km/h
31.03.2016 08:00 8,3 C 82 % 1012,5 hPa 0,0 l/m 0,0 km/h N 5,3 C 8,3 C 1,6 km/h
31.03.2016 09:00 11,6 C 79 % 1012,3 hPa 0,0 l/m 0,5 km/h N 8,1 C 11,6 C 4,4 km/h
31.03.2016 10:00 16,0 C 64 % 1011,9 hPa 0,0 l/m 0,7 km/h N 9,2 C 16,0 C 7,6 km/h
31.03.2016 11:00 19,0 C 56 % 1011,7 hPa 0,0 l/m 0,5 km/h N 9,8 C 19,0 C 7,2 km/h
31.03.2016 12:00 20,7 C 53 % 1011,3 hPa 0,0 l/m 0,8 km/h N 10,8 C 20,7 C 6,4 km/h
31.03.2016 13:00 20,9 C 53 % 1010,7 hPa 0,0 l/m 0,9 km/h N 10,9 C 20,9 C 7,2 km/h
31.03.2016 14:00 22,2 C 48 % 1010,1 hPa 0,0 l/m 1,0 km/h N 10,7 C 22,2 C 7,6 km/h
31.03.2016 15:00 23,2 C 43 % 1009,1 hPa 0,0 l/m 1,5 km/h N 9,8 C 23,2 C 8,0 km/h
31.03.2016 16:00 23,1 C 42 % 1008,3 hPa 0,0 l/m 1,7 km/h N 9,6 C 23,1 C 9,7 km/h
31.03.2016 17:00 23,0 C 41 % 1007,6 hPa 0,0 l/m 2,2 km/h N 9,1 C 23,0 C 10,4 km/h
31.03.2016 18:00 22,9 C 38 % 1007,3 hPa 0,0 l/m 3,1 km/h N 7,9 C 22,9 C 12,5 km/h
31.03.2016 19:00 21,1 C 44 % 1006,8 hPa 0,0 l/m 0,8 km/h N 8,3 C 21,1 C 5,6 km/h
31.03.2016 20:00 19,0 C 50 % 1006,4 hPa 0,0 l/m 0,1 km/h N 8,3 C 19,0 C 2,8 km/h
31.03.2016 21:00 16,9 C 57 % 1006,2 hPa 0,0 l/m 0,0 km/h N 8,4 C 16,9 C 1,6 km/h
31.03.2016 22:00 14,6 C 64 % 1005,7 hPa 0,0 l/m 0,0 km/h N 7,8 C 14,6 C 1,2 km/h
31.03.2016 23:00 12,5 C 71 % 1005,2 hPa 0,0 l/m 0,0 km/h N 7,4 C 12,5 C 0,4 km/h
01.04.2016 00:00 10,9 C 76 % 1005,0 hPa 0,0 l/m 0,0 km/h N 6,9 C 10,9 C 0,4 km/h
01.04.2016 01:00 10,5 C 78 % 1004,8 hPa 0,0 l/m 0,0 km/h N 6,8 C 10,5 C 1,2 km/h
01.04.2016 02:00 10,0 C 79 % 1004,6 hPa 0,0 l/m 0,0 km/h N 6,6 C 10,0 C 1,6 km/h
01.04.2016 03:00 10,2 C 79 % 1004,5 hPa 0,0 l/m 0,1 km/h N 6,7 C 10,2 C 2,8 km/h
01.04.2016 04:00 10,3 C 78 % 1004,6 hPa 0,0 l/m 0,2 km/h N 6,7 C 10,3 C 2,8 km/h
01.04.2016 05:00 10,6 C 75 % 1004,6 hPa 0,0 l/m 0,2 km/h N 6,4 C 10,6 C 4,8 km/h
01.04.2016 06:00 10,6 C 75 % 1005,2 hPa 0,0 l/m 0,1 km/h N 6,4 C 10,6 C 1,6 km/h
01.04.2016 07:00 10,4 C 76 % 1006,2 hPa 0,0 l/m 0,0 km/h N 6,4 C 10,4 C 0,4 km/h
01.04.2016 08:00 11,8 C 75 % 1007,2 hPa 0,0 l/m 1,6 km/h N 7,6 C 11,8 C 8,4 km/h
01.04.2016 09:00 13,9 C 69 % 1008,4 hPa 0,0 l/m 6,8 km/h N 8,3 C 13,2 C 18,1 km/h
01.04.2016 10:00 13,3 C 73 % 1010,5 hPa 0,0 l/m 11,9 km/h N 8,4 C 10,3 C 24,1 km/h
01.04.2016 11:00 12,6 C 75 % 1012,5 hPa 0,0 l/m 11,7 km/h N 8,3 C 9,7 C 27,0 km/h
01.04.2016 12:00 12,7 C 75 % 1013,8 hPa 0,0 l/m 9,9 km/h N 8,3 C 10,6 C 22,1 km/h
01.04.2016 13:00 13,3 C 71 % 1014,6 hPa 0,0 l/m 9,3 km/h N 8,2 C 11,7 C 23,7 km/h
01.04.2016 14:00 13,3 C 69 % 1015,4 hPa 0,0 l/m 10,3 km/h N 7,7 C 11,1 C 25,3 km/h
01.04.2016 15:00 12,1 C 71 % 1016,6 hPa 0,0 l/m 10,2 km/h N 6,9 C 9,8 C 23,7 km/h
01.04.2016 16:00 10,9 C 72 % 1017,8 hPa 0,0 l/m 11,1 km/h N 5,9 C 8,0 C 25,4 km/h
01.04.2016 17:00 9,5 C 73 % 1019,4 hPa 0,0 l/m 9,9 km/h N 4,9 C 7,1 C 24,1 km/h
01.04.2016 18:00 8,6 C 66 % 1020,7 hPa 0,0 l/m 8,5 km/h N 2,7 C 7,1 C 22,9 km/h
01.04.2016 19:00 8,2 C 64 % 1021,5 hPa 0,0 l/m 5,3 km/h N 1,8 C 8,1 C 16,5 km/h
01.04.2016 20:00 8,1 C 65 % 1022,1 hPa 0,0 l/m 2,4 km/h N 1,9 C 8,1 C 10,1 km/h
01.04.2016 21:00 8,0 C 66 % 1022,8 hPa 0,0 l/m 4,1 km/h N 1,9 C 8,0 C 12,1 km/h
01.04.2016 22:00 7,9 C 66 % 1023,5 hPa 0,0 l/m 0,7 km/h N 2,0 C 7,9 C 6,0 km/h
01.04.2016 23:00 7,4 C 70 % 1024,0 hPa 0,0 l/m 0,1 km/h N 2,2 C 7,4 C 2,4 km/h
02.04.2016 00:00 6,9 C 73 % 1024,5 hPa 0,0 l/m 0,0 km/h N 2,3 C 6,9 C 1,6 km/h
02.04.2016 01:00 6,7 C 72 % 1025,0 hPa 0,0 l/m 0,5 km/h N 2,0 C 6,7 C 5,6 km/h
02.04.2016 02:00 6,3 C 69 % 1024,9 hPa 0,0 l/m 0,4 km/h N 1,0 C 6,3 C 5,2 km/h
02.04.2016 03:00 5,9 C 71 % 1024,8 hPa 0,0 l/m 0,0 km/h N 1,0 C 5,9 C 0,8 km/h
02.04.2016 04:00 5,3 C 72 % 1024,8 hPa 0,0 l/m 0,0 km/h N 0,6 C 5,3 C 0,8 km/h
02.04.2016 05:00 4,2 C 72 % 1024,8 hPa 0,0 l/m 0,0 km/h N -0,4 C 4,2 C 0,0 km/h
02.04.2016 06:00 2,9 C 76 % 1025,0 hPa 0,0 l/m 0,0 km/h N -0,9 C 2,9 C 0,0 km/h
02.04.2016 07:00 3,1 C 80 % 1025,2 hPa 0,0 l/m 0,0 km/h N -0,1 C 3,1 C 0,8 km/h
02.04.2016 08:00 4,4 C 79 % 1025,3 hPa 0,0 l/m 0,1 km/h N 1,1 C 4,4 C 2,8 km/h
02.04.2016 09:00 5,9 C 75 % 1025,2 hPa 0,0 l/m 0,3 km/h N 1,7 C 5,9 C 4,8 km/h
02.04.2016 10:00 8,4 C 65 % 1025,0 hPa 0,0 l/m 1,5 km/h N 2,2 C 8,4 C 8,8 km/h
02.04.2016 11:00 11,1 C 55 % 1024,3 hPa 0,0 l/m 3,2 km/h N 2,3 C 11,1 C 12,5 km/h
02.04.2016 12:00 13,0 C 48 % 1023,4 hPa 0,0 l/m 5,7 km/h N 2,3 C 13,0 C 20,5 km/h
02.04.2016 13:00 14,6 C 48 % 1022,7 hPa 0,0 l/m 5,4 km/h N 3,7 C 14,6 C 17,7 km/h
02.04.2016 14:00 15,5 C 48 % 1021,9 hPa 0,0 l/m 5,9 km/h N 4,6 C 15,5 C 19,3 km/h
02.04.2016 15:00 15,4 C 45 % 1021,1 hPa 0,0 l/m 5,6 km/h N 3,4 C 15,4 C 20,9 km/h
02.04.2016 16:00 15,1 C 45 % 1020,7 hPa 0,0 l/m 4,6 km/h N 3,3 C 15,1 C 19,3 km/h
02.04.2016 17:00 14,9 C 49 % 1020,1 hPa 0,0 l/m 3,7 km/h N 4,1 C 14,9 C 17,3 km/h
02.04.2016 18:00 14,2 C 50 % 1020,0 hPa 0,0 l/m 2,0 km/h N 3,9 C 14,2 C 11,3 km/h
02.04.2016 19:00 12,8 C 52 % 1019,8 hPa 0,0 l/m 1,8 km/h N 3,1 C 12,8 C 8,5 km/h
02.04.2016 20:00 11,7 C 53 % 1020,0 hPa 0,0 l/m 1,2 km/h N 2,4 C 11,7 C 7,6 km/h
02.04.2016 21:00 11,0 C 54 % 1020,1 hPa 0,0 l/m 0,9 km/h N 2,1 C 11,0 C 6,8 km/h
02.04.2016 22:00 10,4 C 58 % 1019,8 hPa 0,0 l/m 0,3 km/h N 2,4 C 10,4 C 5,2 km/h
02.04.2016 23:00 9,9 C 62 % 1019,3 hPa 0,0 l/m 0,6 km/h N 3,0 C 9,9 C 6,8 km/h
03.04.2016 00:00 9,5 C 63 % 1018,9 hPa 0,0 l/m 0,4 km/h N 2,7 C 9,5 C 6,8 km/h
03.04.2016 01:00 8,9 C 61 % 1018,8 hPa 0,0 l/m 0,3 km/h N 1,7 C 8,9 C 5,2 km/h
03.04.2016 02:00 8,2 C 61 % 1018,5 hPa 0,0 l/m 0,2 km/h N 1,2 C 8,2 C 4,0 km/h
03.04.2016 03:00 7,8 C 61 % 1017,8 hPa 0,0 l/m 0,7 km/h N 0,7 C 7,8 C 5,6 km/h
03.04.2016 04:00 7,2 C 62 % 1017,5 hPa 0,0 l/m 0,2 km/h N 0,5 C 7,2 C 4,8 km/h
03.04.2016 05:00 6,7 C 63 % 1017,3 hPa 0,0 l/m 0,3 km/h N 0,2 C 6,7 C 4,4 km/h
03.04.2016 06:00 5,1 C 67 % 1017,2 hPa 0,0 l/m 0,0 km/h N -0,6 C 5,1 C 0,0 km/h
03.04.2016 07:00 3,8 C 75 % 1017,1 hPa 0,0 l/m 0,0 km/h N -0,2 C 3,8 C 0,0 km/h
03.04.2016 08:00 6,9 C 73 % 1017,0 hPa 0,0 l/m 0,3 km/h N 2,4 C 6,9 C 3,2 km/h
03.04.2016 09:00 11,5 C 56 % 1016,7 hPa 0,0 l/m 1,0 km/h N 3,1 C 11,5 C 7,6 km/h
03.04.2016 10:00 14,5 C 51 % 1016,6 hPa 0,0 l/m 1,7 km/h N 4,4 C 14,5 C 10,1 km/h
03.04.2016 11:00 16,8 C 49 % 1016,0 hPa 0,0 l/m 1,5 km/h N 6,1 C 16,8 C 11,7 km/h
03.04.2016 12:00 19,0 C 49 % 1015,1 hPa 0,0 l/m 1,2 km/h N 7,9 C 19,0 C 9,3 km/h
03.04.2016 13:00 20,6 C 47 % 1014,1 hPa 0,0 l/m 2,3 km/h N 8,9 C 20,6 C 14,9 km/h
03.04.2016 14:00 20,9 C 46 % 1013,4 hPa 0,0 l/m 2,8 km/h N 8,8 C 20,9 C 15,7 km/h
03.04.2016 15:00 21,5 C 45 % 1012,7 hPa 0,0 l/m 2,3 km/h N 9,2 C 21,5 C 12,1 km/h
03.04.2016 16:00 21,8 C 45 % 1012,1 hPa 0,0 l/m 1,4 km/h N 9,4 C 21,8 C 9,3 km/h
03.04.2016 17:00 21,5 C 45 % 1011,6 hPa 0,0 l/m 1,8 km/h N 9,1 C 21,5 C 8,9 km/h
03.04.2016 18:00 20,3 C 48 % 1011,5 hPa 0,0 l/m 0,9 km/h N 8,8 C 20,3 C 8,9 km/h
03.04.2016 19:00 18,5 C 52 % 1011,3 hPa 0,0 l/m 0,1 km/h N 8,3 C 18,5 C 3,2 km/h
03.04.2016 20:00 16,9 C 55 % 1011,1 hPa 0,0 l/m 0,3 km/h N 7,8 C 16,9 C 3,6 km/h
03.04.2016 21:00 14,6 C 62 % 1010,8 hPa 0,0 l/m 0,0 km/h N 7,2 C 14,6 C 0,8 km/h
03.04.2016 22:00 12,0 C 69 % 1010,6 hPa 0,0 l/m 0,0 km/h N 6,5 C 12,0 C 0,0 km/h
03.04.2016 23:00 10,5 C 76 % 1010,2 hPa 0,0 l/m 0,0 km/h N 6,3 C 10,5 C 0,0 km/h
Min-Datum _ 28.03.16 31.03.16 01.04.16 - 28.03.16 - 03.04.16 28.03.16 28.03.16
_ Min-Zeit 06:15 17:45 03:00 - 00:00 - 06:45 06:00 00:00
Minimum _ 1,8 C 37 % 1004,4 hPa - 0,0 km/h - -1,2 C 1,8 C 0,0 km/h
Max-Datum _ 31.03.16 28.03.16 02.04.16 29.03.16 29.03.16 - 31.03.16 31.03.16 29.03.16
_ Max-Zeit 15:30 03:45 08:30 10:45 13:45 - 13:15 15:30 11:15
Maximum _ 23,3 C 83 % 1025,4 hPa 0,3 l/m 22,3 km/h
N
- 11,2 C 23,3 C 48,3 km/h
N
Durchschnitt _ 11,6 C 66 % 1013,7 hPa #0,8 l/m 2,1 km/h N 5,1 C 11,3 C 7,9 km/h